sensor_id;sensor_type;location;lat;lon;timestamp;pressure;altitude;pressure_sealevel;temperature;humidity
58622;BME280;44389;51.578;5.456;2023-08-07T00:02:00;101215.25;;;11.83;100.00
58622;BME280;44389;51.578;5.456;2023-08-07T00:04:25;101210.00;;;11.80;100.00
58622;BME280;44389;51.578;5.456;2023-08-07T00:06:50;101216.00;;;11.79;100.00
58622;BME280;44389;51.578;5.456;2023-08-07T00:09:15;101205.59;;;11.76;100.00
58622;BME280;44389;51.578;5.456;2023-08-07T00:11:41;101202.91;;;11.73;100.00
58622;BME280;44389;51.578;5.456;2023-08-07T00:14:06;101202.91;;;11.73;100.00
58622;BME280;44389;51.578;5.456;2023-08-07T00:16:31;101203.59;;;11.67;100.00
58622;BME280;44389;51.578;5.456;2023-08-07T00:18:57;101194.13;;;11.68;100.00
58622;BME280;44389;51.578;5.456;2023-08-07T00:21:23;101201.88;;;11.68;100.00
58622;BME280;44389;51.578;5.456;2023-08-07T00:23:49;101204.47;;;11.68;100.00
58622;BME280;44389;51.578;5.456;2023-08-07T00:26:15;101207.03;;;11.68;100.00
58622;BME280;44389;51.578;5.456;2023-08-07T00:28:40;101199.22;;;11.65;100.00
58622;BME280;44389;51.578;5.456;2023-08-07T00:31:06;101211.31;;;11.66;100.00
58622;BME280;44389;51.578;5.456;2023-08-07T00:33:31;101209.63;;;11.68;100.00
58622;BME280;44389;51.578;5.456;2023-08-07T00:35:56;101213.94;;;11.67;100.00
58622;BME280;44389;51.578;5.456;2023-08-07T00:38:21;101213.03;;;11.67;100.00
58622;BME280;44389;51.578;5.456;2023-08-07T00:40:47;101218.31;;;11.70;100.00
58622;BME280;44389;51.578;5.456;2023-08-07T00:43:12;101216.63;;;11.72;100.00
58622;BME280;44389;51.578;5.456;2023-08-07T00:45:41;101221.78;;;11.72;100.00
58622;BME280;44389;51.578;5.456;2023-08-07T00:48:07;101216.63;;;11.72;100.00
58622;BME280;44389;51.578;5.456;2023-08-07T00:50:33;101218.31;;;11.70;100.00
58622;BME280;44389;51.578;5.456;2023-08-07T00:52:59;101219.16;;;11.70;100.00
58622;BME280;44389;51.578;5.456;2023-08-07T00:55:25;101218.38;;;11.73;100.00
58622;BME280;44389;51.578;5.456;2023-08-07T00:57:51;101222.69;;;11.73;100.00
58622;BME280;44389;51.578;5.456;2023-08-07T01:00:16;101219.16;;;11.70;100.00
58622;BME280;44389;51.578;5.456;2023-08-07T01:02:42;101205.41;;;11.70;100.00
58622;BME280;44389;51.578;5.456;2023-08-07T01:05:08;101201.09;;;11.70;100.00
58622;BME280;44389;51.578;5.456;2023-08-07T01:07:33;101207.09;;;11.69;100.00
58622;BME280;44389;51.578;5.456;2023-08-07T01:09:59;101207.16;;;11.71;100.00
58622;BME280;44389;51.578;5.456;2023-08-07T01:12:36;101212.25;;;11.69;100.00
58622;BME280;44389;51.578;5.456;2023-08-07T01:15:15;101212.31;;;11.71;100.00
58622;BME280;44389;51.578;5.456;2023-08-07T01:17:42;101211.47;;;11.72;100.00
58622;BME280;44389;51.578;5.456;2023-08-07T01:20:09;101215.81;;;11.73;100.00
58622;BME280;44389;51.578;5.456;2023-08-07T01:22:36;101214.16;;;11.75;100.00
58622;BME280;44389;51.578;5.456;2023-08-07T01:25:01;101223.75;;;11.79;100.00
58622;BME280;44389;51.578;5.456;2023-08-07T01:27:35;101222.88;;;11.79;100.00
58622;BME280;44389;51.578;5.456;2023-08-07T01:30:22;101232.47;;;11.83;100.00
58622;BME280;44389;51.578;5.456;2023-08-07T01:33:03;101233.44;;;11.86;100.00
58622;BME280;44389;51.578;5.456;2023-08-07T01:35:35;101235.13;;;11.86;100.00
58622;BME280;44389;51.578;5.456;2023-08-07T01:38:05;101235.09;;;11.84;100.00
58622;BME280;44389;51.578;5.456;2023-08-07T01:40:30;101234.28;;;11.85;100.00
58622;BME280;44389;51.578;5.456;2023-08-07T01:42:56;101235.91;;;11.83;100.00
58622;BME280;44389;51.578;5.456;2023-08-07T01:45:23;101240.22;;;11.83;100.00
58622;BME280;44389;51.578;5.456;2023-08-07T01:47:49;101234.28;;;11.85;100.00
58622;BME280;44389;51.578;5.456;2023-08-07T01:50:14;101235.13;;;11.86;100.00
58622;BME280;44389;51.578;5.456;2023-08-07T01:52:39;101232.50;;;11.84;100.00
58622;BME280;44389;51.578;5.456;2023-08-07T01:55:05;101237.69;;;11.84;100.00
58622;BME280;44389;51.578;5.456;2023-08-07T01:57:30;101235.09;;;11.84;100.00
58622;BME280;44389;51.578;5.456;2023-08-07T01:59:56;101244.56;;;11.84;100.00
58622;BME280;44389;51.578;5.456;2023-08-07T02:02:21;101241.81;;;11.79;100.00
58622;BME280;44389;51.578;5.456;2023-08-07T02:04:46;101252.91;;;11.75;100.00
58622;BME280;44389;51.578;5.456;2023-08-07T02:07:12;101251.91;;;11.72;100.00
58622;BME280;44389;51.578;5.456;2023-08-07T02:09:37;101248.47;;;11.71;100.00
58622;BME280;44389;51.578;5.456;2023-08-07T02:12:03;101257.91;;;11.70;100.00
58622;BME280;44389;51.578;5.456;2023-08-07T02:14:28;101255.19;;;11.66;100.00
58622;BME280;44389;51.578;5.456;2023-08-07T02:16:53;101262.94;;;11.66;100.00
58622;BME280;44389;51.578;5.456;2023-08-07T02:19:19;101260.28;;;11.64;100.00
58622;BME280;44389;51.578;5.456;2023-08-07T02:21:44;101257.56;;;11.60;100.00
58622;BME280;44389;51.578;5.456;2023-08-07T02:24:09;101261.75;;;11.56;100.00
58622;BME280;44389;51.578;5.456;2023-08-07T02:26:35;101261.66;;;11.53;100.00
58622;BME280;44389;51.578;5.456;2023-08-07T02:29:00;101260.78;;;11.52;100.00
58622;BME280;44389;51.578;5.456;2023-08-07T02:31:25;101252.22;;;11.53;100.00
58622;BME280;44389;51.578;5.456;2023-08-07T02:33:51;101243.66;;;11.55;100.00
58622;BME280;44389;51.578;5.456;2023-08-07T02:36:16;101247.88;;;11.52;100.00
58622;BME280;44389;51.578;5.456;2023-08-07T02:38:41;101255.59;;;11.52;100.00
58622;BME280;44389;51.578;5.456;2023-08-07T02:41:06;101252.38;;;11.58;100.00
58622;BME280;44389;51.578;5.456;2023-08-07T02:43:32;101246.25;;;11.56;100.00
58622;BME280;44389;51.578;5.456;2023-08-07T02:45:59;101250.72;;;11.62;100.00
58622;BME280;44389;51.578;5.456;2023-08-07T02:48:25;101243.94;;;11.64;100.00
58622;BME280;44389;51.578;5.456;2023-08-07T02:50:51;101260.34;;;11.66;100.00
58622;BME280;44389;51.578;5.456;2023-08-07T02:53:16;101261.22;;;11.66;100.00
58622;BME280;44389;51.578;5.456;2023-08-07T02:55:43;101269.84;;;11.67;100.00
58622;BME280;44389;51.578;5.456;2023-08-07T02:58:09;101265.44;;;11.64;100.00
58622;BME280;44389;51.578;5.456;2023-08-07T03:00:35;101261.19;;;11.65;100.00
58622;BME280;44389;51.578;5.456;2023-08-07T03:03:00;101271.56;;;11.66;100.00
58622;BME280;44389;51.578;5.456;2023-08-07T03:05:25;101261.22;;;11.66;100.00
58622;BME280;44389;51.578;5.456;2023-08-07T03:07:51;101261.25;;;11.68;100.00
58622;BME280;44389;51.578;5.456;2023-08-07T03:10:16;101248.28;;;11.65;100.00
58622;BME280;44389;51.578;5.456;2023-08-07T03:12:41;101256.00;;;11.65;100.00
58622;BME280;44389;51.578;5.456;2023-08-07T03:15:07;101262.03;;;11.65;100.00
58622;BME280;44389;51.578;5.456;2023-08-07T03:17:32;101252.63;;;11.66;100.00
58622;BME280;44389;51.578;5.456;2023-08-07T03:19:58;101254.28;;;11.65;100.00
58622;BME280;44389;51.578;5.456;2023-08-07T03:22:23;101250.84;;;11.65;100.00
58622;BME280;44389;51.578;5.456;2023-08-07T03:24:48;101252.50;;;11.63;100.00
58622;BME280;44389;51.578;5.456;2023-08-07T03:27:14;101252.50;;;11.63;100.00
58622;BME280;44389;51.578;5.456;2023-08-07T03:29:39;101244.72;;;11.61;100.00
58622;BME280;44389;51.578;5.456;2023-08-07T03:32:05;101243.88;;;11.62;100.00
58622;BME280;44389;51.578;5.456;2023-08-07T03:34:30;101237.78;;;11.60;100.00
58622;BME280;44389;51.578;5.456;2023-08-07T03:36:56;101238.69;;;11.61;100.00
58622;BME280;44389;51.578;5.456;2023-08-07T03:39:21;101237.00;;;11.63;100.00
58622;BME280;44389;51.578;5.456;2023-08-07T03:41:46;101233.59;;;11.64;100.00
58622;BME280;44389;51.578;5.456;2023-08-07T03:44:12;101235.38;;;11.65;100.00
58622;BME280;44389;51.578;5.456;2023-08-07T03:46:37;101238.97;;;11.70;100.00
58622;BME280;44389;51.578;5.456;2023-08-07T03:49:02;101242.44;;;11.72;100.00
58622;BME280;44389;51.578;5.456;2023-08-07T03:51:28;101236.50;;;11.75;100.00
58622;BME280;44389;51.578;5.456;2023-08-07T03:53:54;101244.38;;;11.78;100.00
58622;BME280;44389;51.578;5.456;2023-08-07T03:56:20;101247.94;;;11.81;100.00
58622;BME280;44389;51.578;5.456;2023-08-07T03:58:45;101252.25;;;11.82;100.00
58622;BME280;44389;51.578;5.456;2023-08-07T04:01:10;101249.72;;;11.84;100.00
58622;BME280;44389;51.578;5.456;2023-08-07T04:03:36;101259.19;;;11.85;100.00
58622;BME280;44389;51.578;5.456;2023-08-07T04:06:02;101247.16;;;11.84;100.00
58622;BME280;44389;51.578;5.456;2023-08-07T04:08:30;101252.25;;;11.82;100.00
58622;BME280;44389;51.578;5.456;2023-08-07T04:11:00;101253.16;;;11.84;100.00
58622;BME280;44389;51.578;5.456;2023-08-07T04:13:26;101256.75;;;11.88;100.00
58622;BME280;44389;51.578;5.456;2023-08-07T04:15:52;101249.84;;;11.89;100.00
58622;BME280;44389;51.578;5.456;2023-08-07T04:18:17;101247.25;;;11.89;100.00
58622;BME280;44389;51.578;5.456;2023-08-07T04:20:46;101239.53;;;11.89;100.00
58622;BME280;44389;51.578;5.456;2023-08-07T04:23:13;101253.38;;;11.91;100.00
58622;BME280;44389;51.578;5.456;2023-08-07T04:25:38;101241.34;;;11.93;100.00
58622;BME280;44389;51.578;5.456;2023-08-07T04:28:03;101247.41;;;11.93;100.00
58622;BME280;44389;51.578;5.456;2023-08-07T04:30:29;101250.88;;;11.94;100.00
58622;BME280;44389;51.578;5.456;2023-08-07T04:32:54;101263.94;;;11.97;100.00
58622;BME280;44389;51.578;5.456;2023-08-07T04:35:20;101253.59;;;11.97;100.00
58622;BME280;44389;51.578;5.456;2023-08-07T04:37:45;101267.41;;;11.99;100.00
58622;BME280;44389;51.578;5.456;2023-08-07T04:40:11;101259.66;;;11.99;100.00
58622;BME280;44389;51.578;5.456;2023-08-07T04:42:36;101263.16;;;11.99;100.00
58622;BME280;44389;51.578;5.456;2023-08-07T04:45:02;101260.50;;;11.98;100.00
58622;BME280;44389;51.578;5.456;2023-08-07T04:47:28;101267.41;;;11.99;100.00
58622;BME280;44389;51.578;5.456;2023-08-07T04:49:53;101262.38;;;12.02;100.00
58622;BME280;44389;51.578;5.456;2023-08-07T04:52:19;101270.19;;;12.05;100.00
58622;BME280;44389;51.578;5.456;2023-08-07T04:54:44;101258.25;;;12.09;100.00
58622;BME280;44389;51.578;5.456;2023-08-07T04:57:09;101271.28;;;12.13;100.00
58622;BME280;44389;51.578;5.456;2023-08-07T04:59:35;101264.47;;;12.15;100.00
58622;BME280;44389;51.578;5.456;2023-08-07T05:02:01;101264.56;;;12.18;100.00
58622;BME280;44389;51.578;5.456;2023-08-07T05:04:26;101268.94;;;12.21;100.00
58622;BME280;44389;51.578;5.456;2023-08-07T05:06:51;101267.28;;;12.23;100.00
58622;BME280;44389;51.578;5.456;2023-08-07T05:09:16;101282.00;;;12.26;100.00
58622;BME280;44389;51.578;5.456;2023-08-07T05:11:42;101274.28;;;12.27;100.00
58622;BME280;44389;51.578;5.456;2023-08-07T05:14:07;101282.06;;;12.29;100.00
58622;BME280;44389;51.578;5.456;2023-08-07T05:16:32;101278.66;;;12.30;100.00
58622;BME280;44389;51.578;5.456;2023-08-07T05:18:58;101287.34;;;12.32;100.00
58622;BME280;44389;51.578;5.456;2023-08-07T05:21:23;101285.69;;;12.34;100.00
58622;BME280;44389;51.578;5.456;2023-08-07T05:23:48;101284.84;;;12.35;100.00
58622;BME280;44389;51.578;5.456;2023-08-07T05:26:18;101280.50;;;12.34;100.00
58622;BME280;44389;51.578;5.456;2023-08-07T05:28:43;101298.59;;;12.34;100.00
58622;BME280;44389;51.578;5.456;2023-08-07T05:31:08;101292.53;;;12.32;100.00
58622;BME280;44389;51.578;5.456;2023-08-07T05:33:34;101302.88;;;12.32;100.00
58622;BME280;44389;51.578;5.456;2023-08-07T05:35:59;101311.44;;;12.31;100.00
58622;BME280;44389;51.578;5.456;2023-08-07T05:38:24;101318.09;;;12.23;100.00
58622;BME280;44389;51.578;5.456;2023-08-07T05:40:50;101325.50;;;12.12;100.00
58622;BME280;44389;51.578;5.456;2023-08-07T05:43:16;101327.03;;;12.05;100.00
58622;BME280;44389;51.578;5.456;2023-08-07T05:45:42;101323.38;;;11.98;100.00
58622;BME280;44389;51.578;5.456;2023-08-07T05:48:09;101329.34;;;11.96;100.00
58622;BME280;44389;51.578;5.456;2023-08-07T05:50:35;101329.19;;;11.93;100.00
58622;BME280;44389;51.578;5.456;2023-08-07T05:53:00;101329.09;;;11.90;100.00
58622;BME280;44389;51.578;5.456;2023-08-07T05:55:26;101323.06;;;11.89;100.00
58622;BME280;44389;51.578;5.456;2023-08-07T05:57:51;101322.16;;;11.89;100.00
58622;BME280;44389;51.578;5.456;2023-08-07T06:00:16;101323.94;;;11.90;100.00
58622;BME280;44389;51.578;5.456;2023-08-07T06:02:44;101327.38;;;11.90;100.00
58622;BME280;44389;51.578;5.456;2023-08-07T06:05:09;101333.47;;;11.92;100.00
58622;BME280;44389;51.578;5.456;2023-08-07T06:07:37;101330.06;;;11.93;100.00
58622;BME280;44389;51.578;5.456;2023-08-07T06:10:03;101326.75;;;11.96;100.00
58622;BME280;44389;51.578;5.456;2023-08-07T06:12:28;101331.19;;;12.00;100.00
58622;BME280;44389;51.578;5.456;2023-08-07T06:14:53;101338.97;;;12.01;100.00
58622;BME280;44389;51.578;5.456;2023-08-07T06:17:19;101343.34;;;12.04;100.00
58622;BME280;44389;51.578;5.456;2023-08-07T06:19:44;101333.91;;;12.05;100.00
58622;BME280;44389;51.578;5.456;2023-08-07T06:22:09;101347.69;;;12.05;100.00
58622;BME280;44389;51.578;5.456;2023-08-07T06:24:35;101342.69;;;12.10;100.00
58622;BME280;44389;51.578;5.456;2023-08-07T06:27:02;101356.56;;;12.13;100.00
58622;BME280;44389;51.578;5.456;2023-08-07T06:29:27;101361.00;;;12.17;100.00
58622;BME280;44389;51.578;5.456;2023-08-07T06:31:52;101360.22;;;12.20;100.00
58622;BME280;44389;51.578;5.456;2023-08-07T06:34:18;101360.28;;;12.22;100.00
58622;BME280;44389;51.578;5.456;2023-08-07T06:36:43;101362.94;;;12.25;100.00
58622;BME280;44389;51.578;5.456;2023-08-07T06:39:09;101358.88;;;12.33;100.00
58622;BME280;44389;51.578;5.456;2023-08-07T06:41:35;101371.22;;;12.42;100.00
58622;BME280;44389;51.578;5.456;2023-08-07T06:44:01;101367.19;;;12.51;100.00
58622;BME280;44389;51.578;5.456;2023-08-07T06:46:26;101374.66;;;12.71;100.00
58622;BME280;44389;51.578;5.456;2023-08-07T06:48:53;101372.53;;;12.87;100.00
58622;BME280;44389;51.578;5.456;2023-08-07T06:51:18;101376.25;;;12.96;100.00
58622;BME280;44389;51.578;5.456;2023-08-07T06:53:43;101372.88;;;12.99;100.00
58622;BME280;44389;51.578;5.456;2023-08-07T06:56:09;101374.91;;;13.09;100.00
58622;BME280;44389;51.578;5.456;2023-08-07T06:58:34;101377.69;;;13.17;100.00
58622;BME280;44389;51.578;5.456;2023-08-07T07:00:59;101378.63;;;13.21;100.00
58622;BME280;44389;51.578;5.456;2023-08-07T07:03:25;101384.97;;;13.32;100.00
58622;BME280;44389;51.578;5.456;2023-08-07T07:05:50;101375.97;;;13.48;100.00
58622;BME280;44389;51.578;5.456;2023-08-07T07:08:15;101392.59;;;13.58;100.00
58622;BME280;44389;51.578;5.456;2023-08-07T07:10:41;101397.53;;;13.48;100.00
58622;BME280;44389;51.578;5.456;2023-08-07T07:13:06;101397.72;;;13.55;100.00
58622;BME280;44389;51.578;5.456;2023-08-07T07:15:33;101406.91;;;13.43;100.00
58622;BME280;44389;51.578;5.456;2023-08-07T07:17:58;101418.19;;;13.45;100.00
58622;BME280;44389;51.578;5.456;2023-08-07T07:20:24;101427.38;;;13.36;100.00
58622;BME280;44389;51.578;5.456;2023-08-07T07:22:51;101434.75;;;13.22;100.00
58622;BME280;44389;51.578;5.456;2023-08-07T07:25:17;101437.59;;;13.00;100.00
58622;BME280;44389;51.578;5.456;2023-08-07T07:27:42;101440.63;;;12.85;100.00
58622;BME280;44389;51.578;5.456;2023-08-07T07:30:08;101442.19;;;12.80;100.00
58622;BME280;44389;51.578;5.456;2023-08-07T07:32:33;101439.25;;;12.68;100.00
58622;BME280;44389;51.578;5.456;2023-08-07T07:34:59;101440.09;;;12.68;100.00
58622;BME280;44389;51.578;5.456;2023-08-07T07:37:24;101446.03;;;12.64;100.00
58622;BME280;44389;51.578;5.456;2023-08-07T07:39:49;101444.00;;;12.54;100.00
58622;BME280;44389;51.578;5.456;2023-08-07T07:42:15;101456.69;;;12.46;100.00
58622;BME280;44389;51.578;5.456;2023-08-07T07:44:40;101460.00;;;12.42;100.00
58622;BME280;44389;51.578;5.456;2023-08-07T07:47:06;101454.16;;;12.49;100.00
58622;BME280;44389;51.578;5.456;2023-08-07T07:49:32;101455.91;;;12.49;100.00
58622;BME280;44389;51.578;5.456;2023-08-07T07:51:58;101465.25;;;12.45;100.00
58622;BME280;44389;51.578;5.456;2023-08-07T07:54:23;101462.63;;;12.44;100.00
58622;BME280;44389;51.578;5.456;2023-08-07T07:56:48;101459.25;;;12.46;100.00
58622;BME280;44389;51.578;5.456;2023-08-07T07:59:14;101456.38;;;12.64;100.00
58622;BME280;44389;51.578;5.456;2023-08-07T08:01:39;101459.22;;;12.74;100.00
58622;BME280;44389;51.578;5.456;2023-08-07T08:04:05;101456.91;;;12.83;100.00
58622;BME280;44389;51.578;5.456;2023-08-07T08:06:30;101460.66;;;12.93;100.00
58622;BME280;44389;51.578;5.456;2023-08-07T08:08:56;101451.22;;;13.24;100.00
58622;BME280;44389;51.578;5.456;2023-08-07T08:11:21;101457.28;;;13.26;100.00
58622;BME280;44389;51.578;5.456;2023-08-07T08:13:46;101460.81;;;13.28;100.00
58622;BME280;44389;51.578;5.456;2023-08-07T08:16:12;101470.13;;;13.52;100.00
58622;BME280;44389;51.578;5.456;2023-08-07T08:18:37;101467.63;;;13.55;100.00
58622;BME280;44389;51.578;5.456;2023-08-07T08:21:03;101467.16;;;13.70;100.00
58622;BME280;44389;51.578;5.456;2023-08-07T08:23:28;101469.13;;;13.78;100.00
58622;BME280;44389;51.578;5.456;2023-08-07T08:25:53;101465.09;;;13.90;100.00
58622;BME280;44389;51.578;5.456;2023-08-07T08:28:19;101461.97;;;14.03;100.00
58622;BME280;44389;51.578;5.456;2023-08-07T08:30:44;101462.97;;;14.08;100.00
58622;BME280;44389;51.578;5.456;2023-08-07T08:33:10;101465.03;;;14.22;100.00
58622;BME280;44389;51.578;5.456;2023-08-07T08:35:38;101461.56;;;14.21;100.00
58622;BME280;44389;51.578;5.456;2023-08-07T08:38:03;101471.06;;;14.59;100.00
58622;BME280;44389;51.578;5.456;2023-08-07T08:40:30;101468.56;;;15.00;100.00
58622;BME280;44389;51.578;5.456;2023-08-07T08:42:55;101468.00;;;15.13;100.00
58622;BME280;44389;51.578;5.456;2023-08-07T08:45:25;101473.31;;;15.20;100.00
58622;BME280;44389;51.578;5.456;2023-08-07T08:47:51;101478.50;;;15.20;100.00
58622;BME280;44389;51.578;5.456;2023-08-07T08:50:16;101490.69;;;15.22;100.00
58622;BME280;44389;51.578;5.456;2023-08-07T08:52:44;101492.91;;;15.05;100.00
58622;BME280;44389;51.578;5.456;2023-08-07T08:55:10;101490.63;;;15.21;100.00
58622;BME280;44389;51.578;5.456;2023-08-07T08:57:37;101491.66;;;14.88;100.00
58622;BME280;44389;51.578;5.456;2023-08-07T09:00:03;101487.78;;;15.08;100.00
58622;BME280;44389;51.578;5.456;2023-08-07T09:02:32;101486.91;;;15.51;100.00
58622;BME280;44389;51.578;5.456;2023-08-07T09:04:58;101494.75;;;15.54;97.89
58622;BME280;44389;51.578;5.456;2023-08-07T09:07:23;101488.84;;;15.61;100.00
58622;BME280;44389;51.578;5.456;2023-08-07T09:09:49;101490.34;;;15.50;98.59
58622;BME280;44389;51.578;5.456;2023-08-07T09:12:25;101500.75;;;15.50;100.00
58622;BME280;44389;51.578;5.456;2023-08-07T09:14:54;101504.66;;;15.29;100.00
58622;BME280;44389;51.578;5.456;2023-08-07T09:17:23;101504.94;;;15.43;100.00
58622;BME280;44389;51.578;5.456;2023-08-07T09:19:49;101499.00;;;15.48;96.77
58622;BME280;44389;51.578;5.456;2023-08-07T09:22:15;101508.03;;;15.69;100.00
58622;BME280;44389;51.578;5.456;2023-08-07T09:24:40;101509.13;;;15.80;93.16
58622;BME280;44389;51.578;5.456;2023-08-07T09:27:09;101502.53;;;15.98;96.59
58622;BME280;44389;51.578;5.456;2023-08-07T09:29:34;101509.03;;;16.22;92.22
58622;BME280;44389;51.578;5.456;2023-08-07T09:32:13;101502.66;;;16.58;94.69
58622;BME280;44389;51.578;5.456;2023-08-07T09:34:39;101504.78;;;16.84;86.80
58622;BME280;44389;51.578;5.456;2023-08-07T09:37:06;101505.06;;;17.02;82.94
58622;BME280;44389;51.578;5.456;2023-08-07T09:39:32;101506.94;;;17.14;80.17
58622;BME280;44389;51.578;5.456;2023-08-07T09:41:57;101507.66;;;17.02;81.04
58622;BME280;44389;51.578;5.456;2023-08-07T09:44:22;101513.47;;;16.86;78.19
58622;BME280;44389;51.578;5.456;2023-08-07T09:46:48;101522.31;;;16.95;81.12
58622;BME280;44389;51.578;5.456;2023-08-07T09:49:13;101529.47;;;17.10;80.57
58622;BME280;44389;51.578;5.456;2023-08-07T09:51:43;101521.06;;;17.33;76.61
58622;BME280;44389;51.578;5.456;2023-08-07T09:54:09;101526.69;;;17.67;79.03
58622;BME280;44389;51.578;5.456;2023-08-07T09:56:35;101532.63;;;17.55;75.09
58622;BME280;44389;51.578;5.456;2023-08-07T09:59:00;101534.41;;;17.61;70.77
58622;BME280;44389;51.578;5.456;2023-08-07T10:01:26;101534.03;;;18.02;75.25
58622;BME280;44389;51.578;5.456;2023-08-07T10:03:51;101533.09;;;17.97;71.65
58622;BME280;44389;51.578;5.456;2023-08-07T10:06:17;101533.31;;;18.17;63.00
58622;BME280;44389;51.578;5.456;2023-08-07T10:08:45;101541.66;;;18.87;66.01
58622;BME280;44389;51.578;5.456;2023-08-07T10:11:11;101539.91;;;18.87;69.22
58622;BME280;44389;51.578;5.456;2023-08-07T10:13:37;101539.69;;;18.55;68.46
58622;BME280;44389;51.578;5.456;2023-08-07T10:16:02;101539.25;;;19.15;65.96
58622;BME280;44389;51.578;5.456;2023-08-07T10:18:28;101541.28;;;19.84;62.75
58622;BME280;44389;51.578;5.456;2023-08-07T10:20:54;101544.78;;;20.85;54.70
58622;BME280;44389;51.578;5.456;2023-08-07T10:23:20;101548.31;;;20.79;50.26
58622;BME280;44389;51.578;5.456;2023-08-07T10:25:49;101547.25;;;21.41;48.98
58622;BME280;44389;51.578;5.456;2023-08-07T10:28:16;101549.97;;;21.08;46.20
58622;BME280;44389;51.578;5.456;2023-08-07T10:30:44;101554.06;;;21.80;46.65
58622;BME280;44389;51.578;5.456;2023-08-07T10:33:11;101559.31;;;21.85;45.16
58622;BME280;44389;51.578;5.456;2023-08-07T10:35:37;101565.06;;;22.40;44.14
58622;BME280;44389;51.578;5.456;2023-08-07T10:38:07;101572.13;;;22.30;44.81
58622;BME280;44389;51.578;5.456;2023-08-07T10:40:58;101577.13;;;22.64;46.84
58622;BME280;44389;51.578;5.456;2023-08-07T10:43:24;101564.78;;;22.75;43.51
58622;BME280;44389;51.578;5.456;2023-08-07T10:45:50;101568.72;;;23.13;43.23
58622;BME280;44389;51.578;5.456;2023-08-07T10:48:20;101569.13;;;22.75;40.26
58622;BME280;44389;51.578;5.456;2023-08-07T10:50:57;101569.72;;;23.06;41.25
58622;BME280;44389;51.578;5.456;2023-08-07T10:53:36;101572.13;;;23.26;43.15
58622;BME280;44389;51.578;5.456;2023-08-07T10:56:04;101580.34;;;23.70;39.41
58622;BME280;44389;51.578;5.456;2023-08-07T10:58:31;101576.63;;;23.85;38.90
58622;BME280;44389;51.578;5.456;2023-08-07T11:01:16;101579.38;;;23.77;40.19
58622;BME280;44389;51.578;5.456;2023-08-07T11:06:41;101573.47;;;21.41;43.04
58622;BME280;44389;51.578;5.456;2023-08-07T11:09:08;101582.28;;;21.15;44.46
58622;BME280;44389;51.578;5.456;2023-08-07T11:14:11;101579.31;;;22.03;43.26
58622;BME280;44389;51.578;5.456;2023-08-07T11:16:37;101580.88;;;22.30;44.61
58622;BME280;44389;51.578;5.456;2023-08-07T11:19:03;101584.59;;;23.06;41.26
58622;BME280;44389;51.578;5.456;2023-08-07T11:21:31;101581.50;;;24.13;39.74
58622;BME280;44389;51.578;5.456;2023-08-07T11:23:57;101582.06;;;24.35;38.13
58622;BME280;44389;51.578;5.456;2023-08-07T11:26:22;101573.72;;;24.61;37.94
58622;BME280;44389;51.578;5.456;2023-08-07T11:28:50;101573.72;;;25.54;43.56
58622;BME280;44389;51.578;5.456;2023-08-07T11:31:17;101580.63;;;24.70;41.21
58622;BME280;44389;51.578;5.456;2023-08-07T11:33:43;101578.16;;;25.94;37.47
58622;BME280;44389;51.578;5.456;2023-08-07T11:36:11;101579.09;;;25.51;35.35
58622;BME280;44389;51.578;5.456;2023-08-07T11:38:39;101577.97;;;25.17;35.24
58622;BME280;44389;51.578;5.456;2023-08-07T11:41:06;101578.09;;;25.11;34.59
58622;BME280;44389;51.578;5.456;2023-08-07T11:43:32;101584.22;;;25.97;36.36
58622;BME280;44389;51.578;5.456;2023-08-07T11:46:00;101590.34;;;25.13;32.16
58622;BME280;44389;51.578;5.456;2023-08-07T11:48:26;101585.22;;;24.57;35.23
58622;BME280;44389;51.578;5.456;2023-08-07T11:50:53;101589.09;;;25.33;33.53
58622;BME280;44389;51.578;5.456;2023-08-07T11:53:24;101587.22;;;25.41;32.49
58622;BME280;44389;51.578;5.456;2023-08-07T11:55:56;101582.00;;;24.91;34.47
58622;BME280;44389;51.578;5.456;2023-08-07T11:58:23;101576.63;;;25.82;32.57
58622;BME280;44389;51.578;5.456;2023-08-07T12:00:49;101574.69;;;26.29;36.12
58622;BME280;44389;51.578;5.456;2023-08-07T12:03:29;101580.56;;;26.77;34.75
58622;BME280;44389;51.578;5.456;2023-08-07T12:05:58;101574.03;;;25.80;33.95
58622;BME280;44389;51.578;5.456;2023-08-07T12:08:37;101571.53;;;25.32;34.57
58622;BME280;44389;51.578;5.456;2023-08-07T12:11:05;101580.06;;;24.49;35.72
58622;BME280;44389;51.578;5.456;2023-08-07T12:13:31;101578.50;;;23.77;36.27
58622;BME280;44389;51.578;5.456;2023-08-07T12:16:00;101576.16;;;23.55;37.61
58622;BME280;44389;51.578;5.456;2023-08-07T12:18:26;101567.66;;;24.02;37.70
58622;BME280;44389;51.578;5.456;2023-08-07T12:20:56;101574.88;;;24.96;35.93
58622;BME280;44389;51.578;5.456;2023-08-07T12:23:22;101570.38;;;25.02;36.50
58622;BME280;44389;51.578;5.456;2023-08-07T12:25:47;101565.56;;;25.66;33.95
58622;BME280;44389;51.578;5.456;2023-08-07T12:28:14;101575.44;;;24.65;34.49
58622;BME280;44389;51.578;5.456;2023-08-07T12:30:42;101570.09;;;24.14;36.50
58622;BME280;44389;51.578;5.456;2023-08-07T12:33:08;101581.34;;;22.82;38.57
58622;BME280;44389;51.578;5.456;2023-08-07T12:35:34;101582.63;;;22.28;39.36
58622;BME280;44389;51.578;5.456;2023-08-07T12:38:00;101575.22;;;22.78;38.32
58622;BME280;44389;51.578;5.456;2023-08-07T12:40:27;101568.41;;;24.64;38.74
58622;BME280;44389;51.578;5.456;2023-08-07T12:42:52;101564.78;;;24.72;35.98
58622;BME280;44389;51.578;5.456;2023-08-07T12:45:17;101573.97;;;24.97;36.30